Time;durP1;ratioP1;P1;durP2;ratioP2;P2;SDS_P1;SDS_P2;PMS_P1;PMS_P2;Temp;Humidity;BMP_temperature;BMP_pressure;BME280_temperature;BME280_humidity;BME280_pressure;Samples;Min_cycle;Max_cycle;Signal;HPM_P1;HPM_P2
2021/09/25 00:00:27;;;;;;;8.75;7.10;;;;;;;15.97;100.00;101483.34;5262054;28;20059;-70
2021/09/25 00:03:00;;;;;;;9.70;6.05;;;;;;;15.95;100.00;101485.31;5263290;28;20029;-70
2021/09/25 00:05:35;;;;;;;8.48;6.32;;;;;;;15.98;100.00;101481.53;5273169;28;20033;-69
2021/09/25 00:08:06;;;;;;;10.52;6.63;;;;;;;15.94;100.00;101480.19;5267074;28;20033;-69
2021/09/25 00:10:37;;;;;;;10.02;6.13;;;;;;;15.95;100.00;101481.84;5267849;28;20074;-71
2021/09/25 00:13:09;;;;;;;8.13;5.68;;;;;;;15.95;100.00;101479.22;5268932;28;20029;-71
2021/09/25 00:15:40;;;;;;;7.82;5.78;;;;;;;15.94;100.00;101473.06;5265004;28;20035;-70
2021/09/25 00:18:12;;;;;;;10.02;6.15;;;;;;;15.93;100.00;101471.41;5263031;28;20103;-70
2021/09/25 00:20:43;;;;;;;8.13;5.63;;;;;;;15.91;100.00;101470.75;5269642;28;20021;-70
2021/09/25 00:23:14;;;;;;;8.65;5.40;;;;;;;15.90;100.00;101476.16;5270473;28;20028;-70
2021/09/25 00:25:46;;;;;;;7.80;5.15;;;;;;;15.87;100.00;101474.66;5256935;28;20130;-70
2021/09/25 00:28:17;;;;;;;8.20;5.50;;;;;;;15.87;100.00;101471.19;5269924;28;20466;-69
2021/09/25 00:30:48;;;;;;;7.68;5.35;;;;;;;15.88;100.00;101475.50;5274668;28;20436;-69
2021/09/25 00:33:19;;;;;;;7.85;5.75;;;;;;;15.88;100.00;101478.16;5269268;28;20055;-71
2021/09/25 00:35:51;;;;;;;8.82;5.78;;;;;;;15.86;100.00;101485.38;5262000;28;20124;-69
2021/09/25 00:38:22;;;;;;;6.82;5.22;;;;;;;15.86;100.00;101474.81;5273890;28;20032;-71
2021/09/25 00:40:54;;;;;;;8.73;5.47;;;;;;;15.82;100.00;101480.38;5270156;28;20469;-69
2021/09/25 00:43:25;;;;;;;8.63;5.57;;;;;;;15.85;100.00;101489.00;5266633;28;20130;-69
2021/09/25 00:45:56;;;;;;;8.68;5.63;;;;;;;15.85;100.00;101483.72;5259796;28;20020;-70
2021/09/25 00:48:27;;;;;;;8.38;5.38;;;;;;;15.84;100.00;101482.91;5269392;28;20030;-69
2021/09/25 00:50:59;;;;;;;8.25;5.38;;;;;;;15.80;100.00;101482.34;5267662;28;20017;-70
2021/09/25 00:53:30;;;;;;;8.60;5.53;;;;;;;15.82;100.00;101479.56;5253543;28;20115;-70
2021/09/25 00:56:02;;;;;;;9.10;5.53;;;;;;;15.84;100.00;101477.63;5267413;28;20032;-70
2021/09/25 00:58:35;;;;;;;7.55;5.10;;;;;;;15.75;100.00;101476.66;5266930;28;20558;-70
2021/09/25 01:01:07;;;;;;;;;;;;;;;16.07;100.00;101475.38;5260139;28;20029;-70
2021/09/25 01:03:38;;;;;;;9.18;5.55;;;;;;;15.78;100.00;101488.75;5270642;28;20420;-70
2021/09/25 01:06:09;;;;;;;8.85;5.18;;;;;;;15.78;100.00;101486.13;5269296;28;20021;-70
2021/09/25 01:08:41;;;;;;;9.45;6.00;;;;;;;15.75;100.00;101484.59;5256087;28;20035;-70
2021/09/25 01:11:12;;;;;;;10.05;5.30;;;;;;;15.73;100.00;101489.22;5267406;28;20013;-70
2021/09/25 01:13:44;;;;;;;9.48;5.55;;;;;;;15.71;100.00;101488.50;5263095;28;20395;-70
2021/09/25 01:16:15;;;;;;;8.23;5.20;;;;;;;15.71;100.00;101485.03;5265050;28;20021;-70
2021/09/25 01:18:47;;;;;;;10.05;5.30;;;;;;;15.72;100.00;101491.97;5268151;28;20406;-70
2021/09/25 01:21:18;;;;;;;6.68;4.40;;;;;;;15.71;100.00;101483.22;5265140;28;20095;-70
2021/09/25 01:23:50;;;;;;;7.85;5.10;;;;;;;15.72;100.00;101482.28;5269763;28;20035;-70
2021/09/25 01:26:24;;;;;;;7.80;4.90;;;;;;;15.68;100.00;101486.19;5261057;28;20465;-70
2021/09/25 01:28:55;;;;;;;9.65;5.70;;;;;;;15.67;100.00;101487.16;5265463;28;20028;-70
2021/09/25 01:31:27;;;;;;;7.35;5.15;;;;;;;15.69;100.00;101490.50;5265063;28;20027;-70
2021/09/25 01:33:58;;;;;;;5.28;4.63;;;;;;;15.70;100.00;101481.56;5262848;28;20426;-70
2021/09/25 01:36:29;;;;;;;7.45;4.70;;;;;;;15.69;100.00;101485.22;5264377;28;20474;-70
2021/09/25 01:39:01;;;;;;;7.72;4.50;;;;;;;15.68;100.00;101486.19;5270107;28;20079;-70
2021/09/25 01:41:32;;;;;;;7.10;4.70;;;;;;;15.65;100.00;101483.84;5262947;28;20064;-70
2021/09/25 01:44:04;;;;;;;9.90;4.88;;;;;;;15.65;100.00;101480.34;5261998;28;20020;-70
2021/09/25 01:46:35;;;;;;;7.07;4.53;;;;;;;15.67;100.00;101481.88;5269852;28;20020;-70
2021/09/25 01:49:06;;;;;;;6.63;4.95;;;;;;;15.65;100.00;101483.84;5271561;28;20055;-70
2021/09/25 01:51:38;;;;;;;6.32;3.97;;;;;;;15.67;100.00;101481.03;5263107;28;20028;-70
2021/09/25 01:54:11;;;;;;;8.18;4.72;;;;;;;15.65;100.00;101483.84;5265182;28;20047;-70
2021/09/25 01:56:42;;;;;;;6.97;4.22;;;;;;;15.62;100.00;101483.28;5269969;28;20138;-70
2021/09/25 01:59:14;;;;;;;6.32;4.55;;;;;;;15.63;100.00;101482.28;5262108;28;20132;-70
2021/09/25 02:01:45;;;;;;;6.35;4.22;;;;;;;15.65;100.00;101475.91;5261078;28;20440;-70
2021/09/25 02:04:16;;;;;;;8.18;4.63;;;;;;;15.64;100.00;101474.19;5266923;28;20020;-70
2021/09/25 02:06:47;;;;;;;7.38;4.30;;;;;;;15.63;100.00;101479.66;5266546;28;20486;-70
2021/09/25 02:09:19;;;;;;;9.95;4.88;;;;;;;15.60;100.00;101477.28;5261960;28;20474;-70
2021/09/25 02:11:50;;;;;;;6.45;3.92;;;;;;;15.61;100.00;101481.59;5276813;28;20481;-71
2021/09/25 02:14:21;;;;;;;7.47;4.60;;;;;;;15.60;100.00;101472.00;5271444;28;20029;-70
2021/09/25 02:16:53;;;;;;;5.35;4.40;;;;;;;15.60;100.00;101479.94;5274466;28;20035;-70
2021/09/25 02:19:24;;;;;;;5.93;4.30;;;;;;;15.61;100.00;101484.22;5257809;28;20078;-70
2021/09/25 02:21:55;;;;;;;6.22;4.43;;;;;;;15.60;100.00;101486.03;5270998;28;20031;-70
2021/09/25 02:24:27;;;;;;;6.30;3.97;;;;;;;15.62;100.00;101476.19;5274284;28;20040;-70
2021/09/25 02:26:58;;;;;;;5.88;3.53;;;;;;;15.58;100.00;101480.09;5271975;28;20028;-70
2021/09/25 02:29:30;;;;;;;7.55;4.50;;;;;;;15.56;100.00;101471.47;5260514;28;20470;-70
2021/09/25 02:32:02;;;;;;;8.85;4.90;;;;;;;15.58;100.00;101469.53;5270960;28;20095;-70
2021/09/25 02:34:34;;;;;;;6.47;4.50;;;;;;;15.56;100.00;101474.13;5270769;28;20017;-70
2021/09/25 02:37:06;;;;;;;7.60;3.80;;;;;;;15.58;100.00;101467.72;5266594;28;20458;-70
2021/09/25 02:39:37;;;;;;;5.30;3.75;;;;;;;15.60;100.00;101464.91;5269548;28;20048;-70
2021/09/25 02:42:09;;;;;;;6.45;4.50;;;;;;;15.58;100.00;101466.88;5273523;28;20151;-70
2021/09/25 02:44:41;;;;;;;8.68;4.43;;;;;;;15.57;100.00;101460.78;5255368;28;20502;-70
2021/09/25 02:47:12;;;;;;;5.75;4.15;;;;;;;15.57;100.00;101471.34;5265988;28;20120;-70
2021/09/25 02:49:43;;;;;;;8.57;4.10;;;;;;;15.57;100.00;101471.34;5272093;28;20028;-70
2021/09/25 02:52:15;;;;;;;7.25;4.20;;;;;;;15.56;100.00;101474.13;5272497;28;20019;-70
2021/09/25 02:54:46;;;;;;;6.53;3.95;;;;;;;15.56;100.00;101469.66;5262352;28;20028;-70
2021/09/25 02:57:17;;;;;;;7.20;4.75;;;;;;;15.56;100.00;101476.75;5270274;28;20021;-70
2021/09/25 02:59:48;;;;;;;7.00;4.22;;;;;;;15.54;100.00;101470.81;5268343;28;20024;-70
2021/09/25 03:02:20;;;;;;;7.22;4.13;;;;;;;15.55;100.00;101481.22;5267308;28;20115;-70
2021/09/25 03:04:51;;;;;;;5.35;3.75;;;;;;;15.56;100.00;101474.94;5260841;28;20033;-70
2021/09/25 03:07:22;;;;;;;6.15;4.40;;;;;;;15.54;100.00;101473.44;5266815;28;20389;-71
2021/09/25 03:09:54;;;;;;;5.68;4.57;;;;;;;15.56;100.00;101476.75;5268560;28;20111;-70
2021/09/25 03:12:25;;;;;;;6.13;4.30;;;;;;;15.54;100.00;101469.00;5262898;28;20067;-70
2021/09/25 03:14:56;;;;;;;4.80;4.15;;;;;;;15.54;100.00;101471.63;5268600;28;20028;-70
2021/09/25 03:17:27;;;;;;;7.40;4.45;;;;;;;15.52;100.00;101478.03;5272485;28;20295;-70
2021/09/25 03:19:59;;;;;;;9.80;4.78;;;;;;;15.54;100.00;101473.44;5272816;28;20044;-70
2021/09/25 03:22:30;;;;;;;6.55;3.70;;;;;;;15.54;100.00;101470.81;5268777;28;20047;-70
2021/09/25 03:25:07;;;;;;;7.35;4.22;;;;;;;15.53;100.00;101474.41;5271589;28;20059;-70
2021/09/25 03:27:38;;;;;;;6.57;4.05;;;;;;;15.50;100.00;101472.06;5272560;28;20025;-70
2021/09/25 03:30:11;;;;;;;5.88;4.40;;;;;;;15.49;100.00;101473.88;5269405;28;20107;-70
2021/09/25 03:32:42;;;;;;;6.70;4.28;;;;;;;15.49;100.00;101473.03;5268868;28;20505;-70
2021/09/25 03:35:14;;;;;;;6.40;4.18;;;;;;;15.53;100.00;101477.03;5264916;28;20021;-70
2021/09/25 03:37:48;;;;;;;6.40;4.57;;;;;;;15.51;100.00;101477.19;5271606;28;20029;-70
2021/09/25 03:40:19;;;;;;;7.32;4.22;;;;;;;15.48;100.00;101481.94;5257803;28;20045;-70
2021/09/25 03:42:50;;;;;;;6.75;4.45;;;;;;;15.48;100.00;101474.84;5266313;28;20043;-70
2021/09/25 03:45:22;;;;;;;6.13;4.45;;;;;;;15.50;100.00;101467.63;5274379;28;20027;-70
2021/09/25 03:47:58;;;;;;;8.23;4.72;;;;;;;15.51;100.00;101468.44;5262688;28;20021;-70
2021/09/25 03:50:30;;;;;;;7.93;4.63;;;;;;;15.47;100.00;101467.09;5261445;28;20021;-70
2021/09/25 03:53:02;;;;;;;5.82;4.30;;;;;;;15.50;100.00;101462.34;5273091;28;20107;-70
2021/09/25 03:55:33;;;;;;;7.15;4.63;;;;;;;15.48;100.00;101466.94;5270103;28;20021;-70
2021/09/25 03:58:04;;;;;;;8.32;4.78;;;;;;;15.49;100.00;101465.97;5266417;28;20059;-70
2021/09/25 04:00:42;;;;;;;7.60;4.68;;;;;;;15.48;100.00;101460.81;5272899;28;20025;-70
2021/09/25 04:03:13;;;;;;;6.40;4.65;;;;;;;15.46;100.00;101465.44;5259862;28;20052;-70
2021/09/25 04:05:44;;;;;;;9.38;4.82;;;;;;;15.46;100.00;101460.97;5264350;28;20442;-70
2021/09/25 04:08:16;;;;;;;10.25;4.70;;;;;;;15.46;100.00;101463.63;5265297;28;20293;-70
2021/09/25 04:10:47;;;;;;;8.25;4.85;;;;;;;15.47;100.00;101469.72;5264536;28;20017;-70
2021/09/25 04:13:18;;;;;;;8.02;5.38;;;;;;;15.45;100.00;101463.75;5276964;28;20020;-70
2021/09/25 04:15:50;;;;;;;8.07;4.72;;;;;;;15.45;100.00;101461.09;5265827;28;20031;-70
2021/09/25 04:18:21;;;;;;;6.90;4.88;;;;;;;15.43;100.00;101471.00;5269618;28;20027;-70
2021/09/25 04:20:52;;;;;;;8.02;4.82;;;;;;;15.45;100.00;101464.56;5265743;28;20021;-70
2021/09/25 04:23:23;;;;;;;11.40;5.10;;;;;;;15.45;100.00;101467.22;5265359;28;20049;-70
2021/09/25 04:25:55;;;;;;;6.15;4.80;;;;;;;15.45;100.00;101461.94;5269979;28;20504;-70
2021/09/25 04:28:26;;;;;;;7.88;5.22;;;;;;;15.45;100.00;101461.94;5266225;28;20031;-70
2021/09/25 04:30:57;;;;;;;8.73;5.03;;;;;;;15.45;100.00;101461.94;5263157;28;20021;-70
2021/09/25 04:33:29;;;;;;;7.88;4.55;;;;;;;15.38;100.00;101457.38;5255539;28;20025;-69
2021/09/25 04:36:00;;;;;;;5.03;4.53;;;;;;;15.40;100.00;101466.84;5270209;28;20067;-70
2021/09/25 04:38:31;;;;;;;7.40;5.25;;;;;;;15.43;100.00;101463.91;5265990;28;20414;-70
2021/09/25 04:41:02;;;;;;;7.95;4.60;;;;;;;15.41;100.00;101457.09;5270790;28;20386;-70
2021/09/25 04:43:34;;;;;;;7.43;5.07;;;;;;;15.37;100.00;101447.81;5268533;28;20477;-70
2021/09/25 04:46:05;;;;;;;9.02;5.25;;;;;;;15.38;100.00;101452.09;5269302;28;20433;-70
2021/09/25 04:48:37;;;;;;;12.52;5.68;;;;;;;15.35;100.00;101453.25;5272144;28;20517;-70
2021/09/25 04:51:09;;;;;;;7.77;4.97;;;;;;;15.36;100.00;101457.53;5265538;28;20016;-70
2021/09/25 04:53:40;;;;;;;7.95;4.95;;;;;;;15.38;100.00;101457.38;5273798;28;20077;-70
2021/09/25 04:56:11;;;;;;;9.20;5.47;;;;;;;15.36;100.00;101452.25;5266165;28;20024;-70
2021/09/25 04:58:43;;;;;;;6.90;5.88;;;;;;;15.38;100.00;101454.75;5270140;28;20079;-70
2021/09/25 05:01:14;;;;;;;9.02;5.72;;;;;;;15.38;100.00;101452.09;5265292;28;20491;-70
2021/09/25 05:03:46;;;;;;;10.98;6.13;;;;;;;15.37;100.00;101450.44;5268398;28;20033;-70
2021/09/25 05:06:17;;;;;;;8.35;5.53;;;;;;;15.38;100.00;101452.97;5275598;28;20486;-70
2021/09/25 05:08:48;;;;;;;7.05;5.60;;;;;;;15.38;100.00;101449.47;5258297;28;20545;-70
2021/09/25 05:11:20;;;;;;;8.73;5.75;;;;;;;15.36;100.00;101446.16;5270802;28;20020;-70
2021/09/25 05:13:51;;;;;;;9.43;5.70;;;;;;;15.36;100.00;101448.78;5264301;28;20024;-70
2021/09/25 05:16:23;;;;;;;11.63;6.65;;;;;;;15.36;100.00;101456.72;5267518;28;20163;-70
2021/09/25 05:18:54;;;;;;;7.20;5.72;;;;;;;15.36;100.00;101457.53;5260768;28;20021;-70
2021/09/25 05:21:25;;;;;;;12.00;6.55;;;;;;;15.35;100.00;101460.34;5267037;28;20082;-70
2021/09/25 05:23:56;;;;;;;8.52;6.57;;;;;;;15.35;100.00;101458.53;5271090;28;20027;-70
2021/09/25 05:26:28;;;;;;;15.77;6.35;;;;;;;15.31;100.00;101447.44;5257826;28;20029;-70
2021/09/25 05:28:59;;;;;;;10.18;6.45;;;;;;;15.37;100.00;101461.00;5269479;28;20027;-70
2021/09/25 05:31:31;;;;;;;10.05;6.32;;;;;;;15.35;100.00;101460.34;5266190;28;20390;-70
2021/09/25 05:34:03;;;;;;;10.20;6.82;;;;;;;15.38;100.00;101465.31;5271423;28;20436;-70
2021/09/25 05:36:34;;;;;;;9.98;7.10;;;;;;;15.36;100.00;101462.81;5261729;28;20024;-70
2021/09/25 05:39:06;;;;;;;10.32;7.00;;;;;;;15.37;100.00;101466.28;5268553;28;20547;-70
2021/09/25 05:41:37;;;;;;;9.73;7.10;;;;;;;15.36;100.00;101462.00;5263572;28;20397;-70
2021/09/25 05:44:08;;;;;;;13.15;8.15;;;;;;;15.37;100.00;101463.66;5253606;28;20044;-70
2021/09/25 05:46:40;;;;;;;11.43;7.35;;;;;;;15.37;100.00;101468.94;5267993;28;20056;-70
2021/09/25 05:49:11;;;;;;;12.02;7.57;;;;;;;15.37;100.00;101472.41;5271129;28;20478;-70
2021/09/25 05:51:42;;;;;;;13.18;7.85;;;;;;;15.36;100.00;101470.75;5258971;28;20032;-70
2021/09/25 05:54:13;;;;;;;11.95;8.70;;;;;;;15.39;100.00;101477.56;5261258;28;20120;-70
2021/09/25 05:56:45;;;;;;;12.50;9.05;;;;;;;15.38;100.00;101475.88;5262604;28;20032;-70
2021/09/25 05:59:16;;;;;;;13.23;9.23;;;;;;;15.35;100.00;101469.09;5256471;28;20029;-70
2021/09/25 06:01:49;;;;;;;11.55;9.20;;;;;;;15.36;100.00;101470.75;5263158;28;20090;-70
2021/09/25 06:04:20;;;;;;;;;;;;;;;15.68;100.00;101467.72;5259173;28;20036;-70
2021/09/25 06:06:52;;;;;;;11.65;9.10;;;;;;;15.38;100.00;101470.59;5262102;28;19921;-70
2021/09/25 06:09:23;;;;;;;14.10;9.48;;;;;;;15.38;100.00;101462.66;5263024;28;20086;-70
2021/09/25 06:11:55;;;;;;;15.40;10.45;;;;;;;15.39;100.00;101477.56;5262463;28;20393;-71
2021/09/25 06:14:27;;;;;;;14.37;10.57;;;;;;;15.38;100.00;101471.44;5266269;28;20083;-70
2021/09/25 06:16:58;;;;;;;13.65;9.45;;;;;;;15.41;100.00;101465.00;5266271;28;20012;-70
2021/09/25 06:19:29;;;;;;;12.00;9.55;;;;;;;15.42;100.00;101486.00;5263671;28;20029;-70
2021/09/25 06:22:00;;;;;;;16.52;10.23;;;;;;;15.43;100.00;101481.56;5271337;28;20020;-70
2021/09/25 06:24:32;;;;;;;15.30;11.05;;;;;;;15.44;100.00;101483.22;5276389;28;20029;-70
2021/09/25 06:27:03;;;;;;;14.43;10.65;;;;;;;15.47;100.00;101490.84;5261241;28;20044;-70
2021/09/25 06:29:34;;;;;;;14.48;10.23;;;;;;;15.47;100.00;101481.13;5263901;28;20068;-70
2021/09/25 06:32:07;;;;;;;14.93;10.57;;;;;;;15.47;100.00;101481.13;5267022;28;20020;-70
2021/09/25 06:34:38;;;;;;;15.10;10.20;;;;;;;15.50;100.00;101485.28;5267895;28;20024;-70
2021/09/25 06:37:09;;;;;;;13.25;10.70;;;;;;;15.53;100.00;101491.09;5262191;28;20107;-70
2021/09/25 06:39:41;;;;;;;15.52;10.75;;;;;;;15.56;100.00;101492.59;5266781;28;20043;-70
2021/09/25 06:42:12;;;;;;;12.82;9.95;;;;;;;15.58;100.00;101495.94;5261341;28;20501;-70
2021/09/25 06:44:43;;;;;;;15.85;11.32;;;;;;;15.61;100.00;101489.50;5257406;28;20479;-70
2021/09/25 06:47:14;;;;;;;15.27;11.60;;;;;;;15.61;100.00;101490.38;5257289;28;20021;-70
2021/09/25 06:49:46;;;;;;;13.68;11.10;;;;;;;15.63;100.00;101485.75;5261704;28;20083;-70
2021/09/25 06:52:17;;;;;;;14.95;11.20;;;;;;;15.67;100.00;101481.88;5261074;28;20133;-70
2021/09/25 06:54:48;;;;;;;16.27;10.80;;;;;;;15.70;100.00;101484.22;5255809;28;20033;-70
2021/09/25 06:57:19;;;;;;;15.90;10.65;;;;;;;15.69;100.00;101479.94;5259630;28;20462;-69
2021/09/25 06:59:51;;;;;;;14.95;11.00;;;;;;;15.73;100.00;101483.94;5258025;28;20028;-70
2021/09/25 07:02:23;;;;;;;15.18;10.57;;;;;;;15.72;100.00;101478.78;5254649;28;20076;-69
2021/09/25 07:04:54;;;;;;;16.13;11.65;;;;;;;15.79;100.00;101485.97;5259675;28;20021;-70
2021/09/25 07:07:26;;;;;;;17.02;11.48;;;;;;;15.80;100.00;101485.00;5259503;28;20252;-70
2021/09/25 07:09:57;;;;;;;15.88;11.85;;;;;;;15.84;100.00;101493.47;5253281;28;20017;-70
2021/09/25 07:12:28;;;;;;;15.23;11.30;;;;;;;15.80;100.00;101492.94;5251124;28;20028;-70
2021/09/25 07:15:00;;;;;;;16.05;11.88;;;;;;;15.90;100.00;101492.03;5261458;28;20035;-69
2021/09/25 07:17:32;;;;;;;15.07;11.38;;;;;;;15.87;100.00;101495.78;5263909;28;20029;-71
2021/09/25 07:20:05;;;;;;;13.93;11.13;;;;;;;15.95;100.00;101505.63;5253524;28;20061;-73
2021/09/25 07:22:36;;;;;;;18.40;12.60;;;;;;;15.97;100.00;101503.66;5254919;28;20044;-69
2021/09/25 07:25:08;;;;;;;17.48;12.32;;;;;;;16.05;100.00;101506.38;5252497;28;20033;-70
2021/09/25 07:27:40;;;;;;;15.27;11.85;;;;;;;16.08;100.00;101495.53;5253894;28;20406;-70
2021/09/25 07:30:12;;;;;;;15.70;11.63;;;;;;;16.13;100.00;101503.81;5252300;28;20053;-71
2021/09/25 07:32:44;;;;;;;18.88;11.35;;;;;;;16.18;100.00;101504.22;5251517;28;20097;-69
2021/09/25 07:35:15;;;;;;;17.23;11.95;;;;;;;16.23;100.00;101504.59;5253664;28;20227;-69
2021/09/25 07:37:47;;;;;;;16.35;12.10;;;;;;;16.25;100.00;101507.94;5259845;28;20036;-70
2021/09/25 07:40:18;;;;;;;18.10;12.27;;;;;;;16.30;100.00;101510.94;5268353;28;20071;-70
2021/09/25 07:42:49;;;;;;;16.05;12.10;;;;;;;16.35;100.00;101507.00;5271935;28;20036;-70
2021/09/25 07:45:20;;;;;;;17.08;12.95;;;;;;;16.40;100.00;101515.31;5274688;28;20024;-70
2021/09/25 07:47:53;;;;;;;18.42;12.07;;;;;;;16.41;100.00;101523.09;5258217;28;20024;-70
2021/09/25 07:50:24;;;;;;;15.00;11.10;;;;;;;16.44;100.00;101522.81;5260073;28;20021;-70
2021/09/25 07:52:56;;;;;;;15.77;11.95;;;;;;;16.45;100.00;101519.19;5269331;28;20301;-71
2021/09/25 07:55:27;;;;;;;16.50;12.23;;;;;;;16.52;100.00;101519.41;5258676;28;20037;-70
2021/09/25 07:57:58;;;;;;;18.05;12.18;;;;;;;16.57;100.00;101526.88;5258592;28;20017;-70
2021/09/25 08:00:30;;;;;;;18.00;12.70;;;;;;;16.51;100.00;101529.13;5257374;28;20033;-70
2021/09/25 08:03:02;;;;;;;14.70;12.02;;;;;;;16.60;100.00;101538.00;5255275;28;20030;-70
2021/09/25 08:05:33;;;;;;;18.10;12.25;;;;;;;16.62;100.00;101537.81;5253015;28;20079;-70
2021/09/25 08:08:05;;;;;;;14.70;11.38;;;;;;;16.65;100.00;101542.81;5258703;28;20017;-70
2021/09/25 08:10:36;;;;;;;16.35;11.88;;;;;;;16.70;100.00;101532.59;5260629;28;20617;-70
2021/09/25 08:13:07;;;;;;;16.15;12.48;;;;;;;16.79;100.00;101542.31;5256933;28;21031;-70
2021/09/25 08:15:40;;;;;;;15.38;11.90;;;;;;;16.87;100.00;101544.19;5255416;28;20152;-70
2021/09/25 08:18:11;;;;;;;19.33;12.63;;;;;;;16.88;100.00;101545.84;5253667;28;20108;-70
2021/09/25 08:20:42;;;;;;;15.00;12.90;;;;;;;16.92;100.00;101544.53;5257932;28;20107;-70
2021/09/25 08:23:14;;;;;;;15.73;12.15;;;;;;;16.97;100.00;101543.09;5255646;28;20112;-72
2021/09/25 08:25:45;;;;;;;17.20;12.73;;;;;;;17.03;100.00;101539.00;5257210;28;20025;-70
2021/09/25 08:28:17;;;;;;;18.70;12.68;;;;;;;17.08;100.00;101547.28;5259226;28;20086;-70
2021/09/25 08:30:48;;;;;;;17.90;12.00;;;;;;;17.13;100.00;101541.56;5252629;28;20029;-70
2021/09/25 08:33:20;;;;;;;14.88;11.73;;;;;;;17.16;100.00;101544.72;5260298;28;20031;-70
2021/09/25 08:35:51;;;;;;;16.48;12.63;;;;;;;17.18;100.00;101549.84;5255477;28;20497;-70
2021/09/25 08:38:22;;;;;;;16.63;11.60;;;;;;;17.16;100.00;101549.16;5259807;28;20040;-70
2021/09/25 08:40:55;;;;;;;15.82;11.30;;;;;;;17.23;100.00;101553.69;5256235;28;20401;-69
2021/09/25 08:43:27;;;;;;;14.52;10.98;;;;;;;17.27;100.00;101563.00;5260157;28;20021;-69
2021/09/25 08:46:01;;;;;;;14.57;10.57;;;;;;;17.39;100.00;101566.22;5259405;28;20024;-71
2021/09/25 08:48:33;;;;;;;13.35;10.80;;;;;;;17.47;100.00;101560.94;5251120;28;20032;-69
2021/09/25 08:51:05;;;;;;;15.02;12.15;;;;;;;17.48;100.00;101561.78;5253006;28;20498;-70
2021/09/25 08:53:36;;;;;;;14.88;11.75;;;;;;;17.57;100.00;101558.16;5247494;28;20033;-72
2021/09/25 08:56:09;;;;;;;16.80;12.15;;;;;;;17.59;100.00;101565.97;5252284;28;20021;-70
2021/09/25 08:58:40;;;;;;;12.55;10.90;;;;;;;17.57;100.00;101568.75;5257191;28;20498;-71
2021/09/25 09:01:19;;;;;;;15.63;12.10;;;;;;;17.74;100.00;101567.03;5252893;28;20052;-70
2021/09/25 09:03:53;;;;;;;17.38;12.52;;;;;;;17.72;100.00;101574.31;5257598;28;20025;-69
2021/09/25 09:06:24;;;;;;;15.60;11.90;;;;;;;17.79;100.00;101571.88;5254385;28;20028;-70
2021/09/25 09:09:00;;;;;;;16.63;11.53;;;;;;;17.77;100.00;101579.16;5259493;28;20032;-70
2021/09/25 09:11:41;;;;;;;16.83;11.55;;;;;;;17.84;100.00;101583.69;5257854;28;20689;-70
2021/09/25 09:14:14;;;;;;;14.88;11.57;;;;;;;17.80;100.00;101584.97;5252886;28;20113;-70
2021/09/25 09:16:56;;;;;;;15.68;12.13;;;;;;;17.96;100.00;101593.00;5250200;28;20021;-71
2021/09/25 09:19:37;;;;;;;15.57;11.52;;;;;;;18.08;100.00;101592.72;5250239;28;20102;-70
2021/09/25 09:22:09;;;;;;;17.23;11.32;;;;;;;18.17;100.00;101599.69;5251764;28;20025;-70
2021/09/25 09:24:46;;;;;;;15.60;10.77;;;;;;;18.25;100.00;101594.41;5259535;28;20033;-70
2021/09/25 09:27:25;;;;;;;16.25;11.70;;;;;;;18.27;100.00;101591.59;5254351;28;20029;-70
2021/09/25 09:30:07;;;;;;;14.60;11.45;;;;;;;18.39;100.00;101595.59;5252556;28;20025;-70
2021/09/25 09:32:40;;;;;;;13.50;11.10;;;;;;;18.32;100.00;101597.25;5259078;28;20036;-70
2021/09/25 09:35:14;;;;;;;16.88;11.52;;;;;;;18.48;100.00;101592.78;5248106;28;20062;-70
2021/09/25 09:37:47;;;;;;;16.80;11.68;;;;;;;18.39;100.00;101592.94;5254397;28;20548;-70
2021/09/25 09:40:18;;;;;;;;;;;;;;;18.75;100.00;101596.16;5254693;28;20045;-70
2021/09/25 09:42:50;;;;;;;13.95;10.73;;;;;;;18.48;100.00;101589.31;5255473;28;19971;-70
2021/09/25 09:45:27;;;;;;;15.67;11.60;;;;;;;18.59;100.00;101590.81;5248493;28;20036;-69
2021/09/25 09:47:59;;;;;;;15.38;10.88;;;;;;;18.60;100.00;101593.31;5254783;28;20029;-70
2021/09/25 09:50:31;;;;;;;16.63;11.50;;;;;;;18.68;100.00;101589.84;5254719;28;20382;-69
2021/09/25 09:53:12;;;;;;;14.37;10.97;;;;;;;18.80;100.00;101587.72;5253857;28;20029;-70
2021/09/25 09:55:44;;;;;;;14.00;10.95;;;;;;;18.81;100.00;101592.03;5257518;28;20029;-70
2021/09/25 09:58:15;;;;;;;13.70;10.88;;;;;;;18.92;100.00;101589.88;5258017;28;20024;-69
2021/09/25 10:00:47;;;;;;;17.33;11.30;;;;;;;19.02;100.00;101592.34;5247982;28;20037;-70
2021/09/25 10:03:19;;;;;;;16.60;11.07;;;;;;;18.96;100.00;101588.53;5258662;28;20074;-70
2021/09/25 10:05:50;;;;;;;15.10;11.17;;;;;;;19.02;100.00;101591.53;5257141;28;20106;-70
2021/09/25 10:08:21;;;;;;;11.97;10.33;;;;;;;19.01;100.00;101579.22;5259125;28;20021;-69
2021/09/25 10:10:55;;;;;;;14.63;11.47;;;;;;;19.12;100.00;101586.84;5258299;28;20057;-70
2021/09/25 10:13:27;;;;;;;16.08;10.68;;;;;;;19.08;100.00;101577.56;5252422;28;20086;-70
2021/09/25 10:15:59;;;;;;;14.30;9.77;;;;;;;19.26;100.00;101580.88;5257939;28;20245;-70
2021/09/25 10:18:30;;;;;;;12.00;9.10;;;;;;;19.39;100.00;101575.00;5258492;28;20048;-70
2021/09/25 10:21:04;;;;;;;13.43;9.80;;;;;;;19.40;100.00;101577.50;5259225;28;20023;-69
2021/09/25 10:23:40;;;;;;;14.07;9.70;;;;;;;19.51;100.00;101579.00;5257702;28;20035;-69
2021/09/25 10:26:14;;;;;;;10.73;8.85;;;;;;;19.50;100.00;101579.97;5257823;28;20820;-69
2021/09/25 10:29:05;;;;;;;11.95;8.60;;;;;;;19.69;100.00;101574.28;5258663;28;20037;-69
2021/09/25 10:31:37;;;;;;;10.63;9.10;;;;;;;19.64;100.00;101567.84;5258330;28;20208;-69
2021/09/25 10:34:12;;;;;;;12.13;8.68;;;;;;;19.66;100.00;101568.47;5262252;28;20031;-68
2021/09/25 10:36:51;;;;;;;13.98;8.93;;;;;;;19.80;100.00;101573.06;5262315;28;20024;-68
2021/09/25 10:39:33;;;;;;;12.00;8.55;;;;;;;19.86;100.00;101574.22;5259585;28;20071;-69
2021/09/25 10:42:12;;;;;;;11.88;8.00;;;;;;;19.86;100.00;101574.22;5257240;28;20021;-69
2021/09/25 10:44:48;;;;;;;11.95;8.40;;;;;;;20.03;100.00;101569.66;5262155;28;20075;-68
2021/09/25 10:47:22;;;;;;;11.60;8.13;;;;;;;19.97;100.00;101563.22;5259222;28;20465;-69
2021/09/25 10:49:56;;;;;;;11.30;7.28;;;;;;;20.05;100.00;101568.47;5261054;28;20203;-69
2021/09/25 10:52:52;;;;;;;10.57;7.18;;;;;;;20.25;100.00;101560.03;5262429;28;20047;-69
2021/09/25 10:55:26;;;;;;;10.85;7.57;;;;;;;20.21;100.00;101551.59;5256131;28;20045;-69
2021/09/25 10:58:16;;;;;;;10.68;7.45;;;;;;;20.40;100.00;101561.75;5262154;28;20029;-69
2021/09/25 11:00:52;;;;;;;10.80;7.30;;;;;;;20.38;100.00;101561.13;5261791;28;20029;-69
2021/09/25 11:03:47;;;;;;;10.63;7.22;;;;;;;20.51;100.00;101555.22;5254294;28;20053;-69
2021/09/25 11:06:31;;;;;;;8.70;6.85;;;;;;;20.56;100.00;101554.69;5256596;28;20074;-69
2021/09/25 11:09:07;;;;;;;9.73;7.13;;;;;;;20.62;100.00;101554.00;5261409;28;20024;-69
2021/09/25 11:11:47;;;;;;;9.27;7.03;;;;;;;20.67;100.00;101556.09;5254717;28;20029;-70
2021/09/25 11:14:24;;;;;;;9.13;5.97;;;;;;;20.63;100.00;101552.97;5261440;28;20075;-69
2021/09/25 11:16:58;;;;;;;7.78;6.50;;;;;;;20.65;100.00;101548.31;5262098;28;20044;-69
2021/09/25 11:19:42;;;;;;;9.15;6.43;;;;;;;20.82;100.00;101543.66;5258313;28;20029;-69
2021/09/25 11:22:16;;;;;;;9.68;6.00;;;;;;;20.85;100.00;101545.97;5261385;28;20028;-69
2021/09/25 11:24:53;;;;;;;7.55;5.65;;;;;;;20.88;100.00;101548.28;5261340;28;20044;-69
2021/09/25 11:27:33;;;;;;;9.10;5.18;;;;;;;21.01;100.00;101547.66;5256325;28;20047;-69
2021/09/25 11:30:17;;;;;;;6.47;4.90;;;;;;;20.99;100.00;101544.34;5260553;28;20055;-69
2021/09/25 11:32:53;;;;;;;7.65;5.03;;;;;;;21.02;100.00;101544.78;5261407;28;20020;-69
2021/09/25 11:35:32;;;;;;;7.13;4.50;;;;;;;21.18;100.00;101551.00;5261684;28;20117;-69